Port Moresby, Papua New Guinea
Current Conditions -  °F | °C
As of 5:00 AM on Sunday 21 Dec 2014 (Local Time) from YHID Reporting Station
Scattered Clouds Scattered Clouds  
Wind Chill: 82°   Ceiling: Unl
Heat Index: 88°   Visibility: 6mi
Dew Point: 73°   Wind: 6mph
Humidity: 74%   Direction: 100°E
Pressure: 29.77"   Gusts: NA
Location:  9.48°S, 147.18°E
Report Text: YHID 201900Z AUTO 10005KT 9999 // SCT037 28/23 Q1008
Loading
Personal Weather Stations






























Interactive Weather Map New forecast layout! Learn more

10-Day Weather Forecast

Advertisements
Track Severe Weather on mobile